createdAt,value
2022-08-24T00:01:40.479Z,24.33
2022-08-24T00:04:15.321Z,23.13
2022-08-24T00:06:50.144Z,21.60
2022-08-24T00:09:22.707Z,22.67
2022-08-24T00:11:55.457Z,23.95
2022-08-24T00:14:28.479Z,21.40
2022-08-24T00:17:01.808Z,24.33
2022-08-24T00:19:35.095Z,21.92
2022-08-24T00:22:29.708Z,23.35
2022-08-24T00:25:02.435Z,23.23
2022-08-24T00:27:36.536Z,22.38
2022-08-24T00:30:12.527Z,18.48
2022-08-24T00:32:47.306Z,20.20
2022-08-24T00:35:20.528Z,21.48
2022-08-24T00:38:19.852Z,21.20
2022-08-24T00:41:22.671Z,22.87
2022-08-24T00:44:00.602Z,23.13
2022-08-24T00:46:45.080Z,23.17
2022-08-24T00:49:33.832Z,30.45
2022-08-24T00:52:21.671Z,36.10
2022-08-24T00:55:09.747Z,30.40
2022-08-24T00:57:46.848Z,23.17
2022-08-24T01:00:28.951Z,24.38
2022-08-24T01:03:05.095Z,20.58
2022-08-24T01:05:39.306Z,22.75
2022-08-24T01:08:12.954Z,20.80
2022-08-24T01:10:49.869Z,24.92
2022-08-24T01:13:23.451Z,24.83
2022-08-24T01:16:01.763Z,23.35
2022-08-24T01:18:51.214Z,22.63
2022-08-24T01:21:38.229Z,22.30
2022-08-24T01:24:13.038Z,16.77
2022-08-24T01:26:49.854Z,21.13
2022-08-24T01:29:28.056Z,22.02
2022-08-24T01:32:00.806Z,20.83
2022-08-24T01:34:33.421Z,20.58
2022-08-24T01:37:09.856Z,22.20
2022-08-24T01:39:47.808Z,22.63
2022-08-24T01:42:20.728Z,17.80
2022-08-24T01:44:53.626Z,22.75
2022-08-24T01:47:26.791Z,22.08
2022-08-24T01:50:01.402Z,18.83
2022-08-24T01:53:01.491Z,23.20
2022-08-24T01:55:27.050Z,18.92
2022-08-24T01:58:00.444Z,24.50
2022-08-24T02:00:34.699Z,21.23
2022-08-24T02:03:07.771Z,19.92
2022-08-24T02:05:40.419Z,22.13
2022-08-24T02:08:13.174Z,19.45
2022-08-24T02:10:50.933Z,17.05
2022-08-24T02:13:30.104Z,18.75
2022-08-24T02:16:02.874Z,15.95
2022-08-24T02:18:40.699Z,15.43
2022-08-24T02:21:14.535Z,15.52
2022-08-24T02:23:47.339Z,14.70
2022-08-24T02:26:19.940Z,13.98
2022-08-24T02:28:52.647Z,14.40
2022-08-24T02:31:27.701Z,15.02
2022-08-24T02:34:00.938Z,12.90
2022-08-24T02:36:33.511Z,11.00
2022-08-24T02:39:08.191Z,13.77
2022-08-24T02:41:41.022Z,12.07
2022-08-24T02:44:14.043Z,14.05
2022-08-24T02:46:46.966Z,15.18
2022-08-24T02:49:21.415Z,15.32
2022-08-24T02:51:53.970Z,13.95
2022-08-24T02:54:26.806Z,14.15
2022-08-24T02:56:59.762Z,14.80
2022-08-24T02:59:32.770Z,15.65
2022-08-24T03:02:05.753Z,13.70
2022-08-24T03:04:38.923Z,15.98
2022-08-24T03:07:11.483Z,16.05
2022-08-24T03:09:45.927Z,18.75
2022-08-24T03:12:18.446Z,17.63
2022-08-24T03:14:51.614Z,13.27
2022-08-24T03:17:24.150Z,18.92
2022-08-24T03:19:57.435Z,16.67
2022-08-24T03:22:29.971Z,16.13
2022-08-24T03:25:03.858Z,16.75
2022-08-24T03:27:36.727Z,18.85
2022-08-24T03:30:12.997Z,16.23
2022-08-24T03:32:45.658Z,16.35
2022-08-24T03:35:19.467Z,18.92
2022-08-24T03:37:52.154Z,15.95
2022-08-24T03:40:25.052Z,17.50
2022-08-24T03:42:57.876Z,16.92
2022-08-24T03:45:30.792Z,19.52
2022-08-24T03:48:03.773Z,16.52
2022-08-24T03:50:36.659Z,15.57
2022-08-24T03:53:09.338Z,17.70
2022-08-24T03:55:42.054Z,16.52
2022-08-24T03:58:14.611Z,16.80
2022-08-24T04:00:47.387Z,16.77
2022-08-24T04:03:20.047Z,16.35
2022-08-24T04:05:52.813Z,13.55
2022-08-24T04:08:25.598Z,13.20
2022-08-24T04:10:58.658Z,14.93
2022-08-24T04:13:32.188Z,14.23
2022-08-24T04:16:14.055Z,12.45
2022-08-24T04:18:47.274Z,10.07
2022-08-24T04:21:32.242Z,14.48
2022-08-24T04:24:09.789Z,13.27
2022-08-24T04:26:45.613Z,14.25
2022-08-24T04:29:20.442Z,14.40
2022-08-24T04:31:53.621Z,12.85
2022-08-24T04:34:26.235Z,13.20
2022-08-24T04:36:59.013Z,13.32
2022-08-24T04:39:33.613Z,12.68
2022-08-24T04:42:06.874Z,14.25
2022-08-24T04:44:41.591Z,15.68
2022-08-24T04:47:14.357Z,16.23
2022-08-24T04:49:47.026Z,14.00
2022-08-24T04:52:19.789Z,16.25
2022-08-24T04:54:52.388Z,15.82
2022-08-24T04:57:25.151Z,17.67
2022-08-24T04:59:58.455Z,14.73
2022-08-24T05:02:34.872Z,17.48
2022-08-24T05:05:11.341Z,19.93
2022-08-24T05:07:45.148Z,17.75
2022-08-24T05:10:17.720Z,22.35
2022-08-24T05:12:50.680Z,33.13
2022-08-24T05:15:23.264Z,39.17
2022-08-24T05:17:55.979Z,40.13
2022-08-24T05:20:29.103Z,36.80
2022-08-24T05:23:04.506Z,28.60
2022-08-24T05:25:37.827Z,16.85
2022-08-24T05:28:10.945Z,16.02
2022-08-24T05:30:43.567Z,17.85
2022-08-24T05:33:16.359Z,13.18
2022-08-24T05:35:50.363Z,16.42
2022-08-24T05:38:25.779Z,17.92
2022-08-24T05:40:58.436Z,14.05
2022-08-24T05:43:31.271Z,17.75
2022-08-24T05:46:03.886Z,18.65
2022-08-24T05:48:37.838Z,18.08
2022-08-24T05:51:11.603Z,14.75
2022-08-24T05:53:45.066Z,20.83
2022-08-24T05:56:19.299Z,20.80
2022-08-24T05:58:52.038Z,15.90
2022-08-24T06:01:26.694Z,18.98
2022-08-24T06:04:00.589Z,18.63
2022-08-24T06:06:33.370Z,18.38
2022-08-24T06:09:06.686Z,19.85
2022-08-24T06:11:41.538Z,20.85
2022-08-24T06:14:16.449Z,17.17
2022-08-24T06:16:49.297Z,16.35
2022-08-24T06:19:22.988Z,21.40
2022-08-24T06:21:56.085Z,20.13
2022-08-24T06:24:47.938Z,22.33
2022-08-24T06:27:23.852Z,20.50
2022-08-24T06:30:00.485Z,19.50
2022-08-24T06:32:33.124Z,15.52
2022-08-24T06:35:07.502Z,19.67
2022-08-24T06:37:44.041Z,20.17
2022-08-24T06:40:17.076Z,18.73
2022-08-24T06:42:49.686Z,18.15
2022-08-24T06:45:22.577Z,17.88
2022-08-24T06:47:55.894Z,17.55
2022-08-24T06:50:28.737Z,20.60
2022-08-24T06:53:01.542Z,18.75
2022-08-24T06:55:34.610Z,20.02
2022-08-24T06:58:07.182Z,13.82
2022-08-24T07:00:40.247Z,14.57
2022-08-24T07:03:13.023Z,16.80
2022-08-24T07:05:57.482Z,18.60
2022-08-24T07:08:30.782Z,17.58
2022-08-24T07:11:05.432Z,19.55
2022-08-24T07:13:38.777Z,18.42
2022-08-24T07:16:12.137Z,16.10
2022-08-24T07:18:49.381Z,16.55
2022-08-24T07:21:23.567Z,17.08
2022-08-24T07:23:58.099Z,18.73
2022-08-24T07:26:32.135Z,19.17
2022-08-24T07:29:25.030Z,15.25
2022-08-24T07:32:03.775Z,14.00
2022-08-24T07:34:45.274Z,14.45
2022-08-24T07:37:21.774Z,15.55
2022-08-24T07:39:59.293Z,18.13
2022-08-24T07:43:04.057Z,21.05
2022-08-24T07:45:46.149Z,17.45
2022-08-24T07:48:26.617Z,21.70
2022-08-24T07:51:06.420Z,20.50
2022-08-24T07:53:53.586Z,18.00
2022-08-24T07:56:35.148Z,20.65
2022-08-24T08:02:15.023Z,23.13
2022-08-24T08:05:00.186Z,23.35
2022-08-24T08:07:35.269Z,19.13
2022-08-24T08:10:17.861Z,20.08
2022-08-24T08:12:50.701Z,20.55
2022-08-24T08:15:23.595Z,19.25
2022-08-24T08:17:58.918Z,19.92
2022-08-24T08:20:34.430Z,20.80
2022-08-24T08:23:26.394Z,20.67
2022-08-24T08:26:15.118Z,19.38
2022-08-24T08:29:11.190Z,17.77
2022-08-24T08:31:50.243Z,13.07
2022-08-24T08:34:39.739Z,13.80
2022-08-24T08:37:16.130Z,12.55
2022-08-24T08:39:54.832Z,15.45
2022-08-24T08:42:35.729Z,16.17
2022-08-24T08:45:27.257Z,14.75
2022-08-24T08:48:36.599Z,15.15
2022-08-24T08:51:39.237Z,14.93
2022-08-24T08:54:13.943Z,10.95
2022-08-24T08:57:04.717Z,14.50
2022-08-24T09:00:04.763Z,13.35
2022-08-24T09:02:59.220Z,14.45
2022-08-24T09:08:54.275Z,14.73
2022-08-24T09:11:48.414Z,14.05
2022-08-24T09:14:48.663Z,12.35
2022-08-24T09:17:40.149Z,13.50
2022-08-24T09:20:37.590Z,10.32
2022-08-24T09:23:29.690Z,12.55
2022-08-24T09:26:25.725Z,9.98
2022-08-24T09:28:58.592Z,11.10
2022-08-24T09:31:57.444Z,12.95
2022-08-24T09:35:02.375Z,7.00
2022-08-24T09:37:53.885Z,7.93
2022-08-24T09:40:46.944Z,7.45
2022-08-24T09:43:48.748Z,7.80
2022-08-24T09:46:39.819Z,4.78
2022-08-24T09:49:43.163Z,8.05
2022-08-24T09:52:50.483Z,8.35
2022-08-24T09:55:32.195Z,6.30
2022-08-24T09:58:32.031Z,7.38
2022-08-24T10:01:29.355Z,3.95
2022-08-24T10:04:26.808Z,4.75
2022-08-24T10:07:33.151Z,5.20
2022-08-24T10:10:36.560Z,6.75
2022-08-24T10:13:44.191Z,5.75
2022-08-24T10:16:29.010Z,5.45
2022-08-24T10:20:38.083Z,4.97
2022-08-24T10:32:06.426Z,6.13
2022-08-24T10:37:07.931Z,5.53
2022-08-24T10:39:09.157Z,5.25
2022-08-24T10:42:34.954Z,5.65
2022-08-24T10:45:16.863Z,5.50
2022-08-24T10:48:21.443Z,4.85
2022-08-24T10:51:08.927Z,6.35
2022-08-24T10:53:49.143Z,4.63
2022-08-24T10:56:32.347Z,5.90
2022-08-24T10:59:29.146Z,6.00
2022-08-24T11:02:31.880Z,5.78
2022-08-24T11:05:08.361Z,6.40
2022-08-24T11:07:57.859Z,6.72
2022-08-24T11:10:38.318Z,6.55
2022-08-24T11:13:24.786Z,5.15
2022-08-24T11:16:04.153Z,5.75
2022-08-24T11:19:33.338Z,6.05
2022-08-24T11:22:30.830Z,6.30
2022-08-24T11:25:15.558Z,5.95
2022-08-24T11:27:53.294Z,7.72
2022-08-24T11:30:28.437Z,5.72
2022-08-24T11:33:04.761Z,6.40
2022-08-24T11:35:40.067Z,6.25
2022-08-24T11:38:17.730Z,6.60
2022-08-24T11:41:26.406Z,5.55
2022-08-24T11:44:04.842Z,4.97
2022-08-24T11:46:51.939Z,5.57
2022-08-24T11:49:41.163Z,5.00
2022-08-24T11:52:28.910Z,5.65
2022-08-24T11:55:09.983Z,5.03
2022-08-24T11:57:50.698Z,5.18
2022-08-24T12:00:30.306Z,5.82
2022-08-24T12:03:11.028Z,6.10
2022-08-24T12:06:01.150Z,5.13
2022-08-24T12:08:46.119Z,5.63
2022-08-24T12:11:50.338Z,6.43
2022-08-24T12:14:45.823Z,5.82
2022-08-24T12:17:35.660Z,5.95
2022-08-24T12:20:34.386Z,6.35
2022-08-24T12:23:52.923Z,5.32
2022-08-24T12:27:01.604Z,5.53
2022-08-24T12:30:07.266Z,5.95
2022-08-24T12:32:51.327Z,5.20
2022-08-24T12:35:44.282Z,5.65
2022-08-24T12:38:23.114Z,6.22
2022-08-24T12:41:14.117Z,5.78
2022-08-24T12:44:09.249Z,5.75
2022-08-24T12:46:45.858Z,5.57
2022-08-24T12:49:36.515Z,5.63
2022-08-24T12:52:34.838Z,6.13
2022-08-24T12:55:28.607Z,5.78
2022-08-24T12:58:35.159Z,5.32
2022-08-24T13:01:11.412Z,5.72
2022-08-24T13:03:48.059Z,4.40
2022-08-24T13:06:27.914Z,4.88
2022-08-24T13:09:13.937Z,5.60
2022-08-24T13:11:47.493Z,5.97
2022-08-24T13:14:24.118Z,5.47
2022-08-24T13:16:56.635Z,5.57
2022-08-24T13:19:32.985Z,4.95
2022-08-24T13:22:12.912Z,4.32
2022-08-24T13:25:18.985Z,4.22
2022-08-24T13:28:05.292Z,3.63
2022-08-24T13:30:52.162Z,5.50
2022-08-24T13:33:42.652Z,5.95
2022-08-24T13:36:46.468Z,5.05
2022-08-24T13:39:41.105Z,4.55
2022-08-24T13:42:19.676Z,4.65
2022-08-24T13:45:23.098Z,4.30
2022-08-24T13:48:04.139Z,4.50
2022-08-24T13:51:34.643Z,3.58
2022-08-24T13:54:20.262Z,3.97
2022-08-24T13:57:13.146Z,3.55
2022-08-24T14:00:37.133Z,4.68
2022-08-24T14:03:49.501Z,3.92
2022-08-24T14:06:48.940Z,4.63
2022-08-24T14:12:32.866Z,4.88
2022-08-24T14:15:14.904Z,4.97
2022-08-24T14:18:09.325Z,3.65
2022-08-24T14:21:18.067Z,4.82
2022-08-24T14:24:05.289Z,3.88
2022-08-24T14:26:40.700Z,3.97
2022-08-24T14:29:19.027Z,3.50
2022-08-24T14:32:04.911Z,4.03
2022-08-24T14:35:02.072Z,4.32
2022-08-24T14:37:49.181Z,4.43
2022-08-24T14:40:41.004Z,4.40
2022-08-24T14:43:16.432Z,4.82
2022-08-24T14:46:08.620Z,3.55
2022-08-24T14:49:06.328Z,4.30
2022-08-24T14:52:00.909Z,3.40
2022-08-24T14:54:58.380Z,3.60
2022-08-24T14:57:52.380Z,4.03
2022-08-24T15:00:51.260Z,3.45
2022-08-24T15:03:50.526Z,4.22
2022-08-24T15:06:35.164Z,3.25
2022-08-24T15:09:08.294Z,3.42
2022-08-24T15:11:42.338Z,3.92
2022-08-24T15:14:37.207Z,2.75
2022-08-24T15:17:14.535Z,3.15
2022-08-24T15:20:18.397Z,2.83
2022-08-24T15:22:58.476Z,2.88
2022-08-24T15:25:59.661Z,3.50
2022-08-24T15:28:33.926Z,3.92
2022-08-24T15:31:11.167Z,3.65
2022-08-24T15:34:02.735Z,3.20
2022-08-24T15:36:35.589Z,2.55
2022-08-24T15:39:08.154Z,3.55
2022-08-24T15:41:43.044Z,3.28
2022-08-24T15:44:23.485Z,3.80
2022-08-24T15:47:02.731Z,3.47
2022-08-24T15:49:45.330Z,4.57
2022-08-24T15:52:45.234Z,3.55
2022-08-24T15:55:34.870Z,3.22
2022-08-24T15:58:28.960Z,3.35
2022-08-24T16:01:29.367Z,2.90
2022-08-24T16:04:12.561Z,2.72
2022-08-24T16:06:56.664Z,3.10
2022-08-24T16:09:29.768Z,3.00
2022-08-24T16:12:22.873Z,3.00
2022-08-24T16:15:12.062Z,3.03
2022-08-24T16:17:51.708Z,2.92
2022-08-24T16:20:24.612Z,2.72
2022-08-24T16:23:01.249Z,2.85
2022-08-24T16:25:45.355Z,3.08
2022-08-24T16:28:23.761Z,3.50
2022-08-24T16:31:06.930Z,2.83
2022-08-24T16:33:46.405Z,3.85
2022-08-24T16:36:20.874Z,2.60
2022-08-24T16:38:53.562Z,3.15
2022-08-24T16:41:26.481Z,3.13
2022-08-24T16:44:00.233Z,3.22
2022-08-24T16:46:34.857Z,3.70
2022-08-24T16:49:08.749Z,3.97
2022-08-24T16:51:45.787Z,3.38
2022-08-24T16:54:20.394Z,2.78
2022-08-24T16:56:57.005Z,3.75
2022-08-24T16:59:33.258Z,3.67
2022-08-24T17:02:06.243Z,4.10
2022-08-24T17:04:45.772Z,3.55
2022-08-24T17:07:26.368Z,3.22
2022-08-24T17:10:02.593Z,3.65
2022-08-24T17:12:36.345Z,4.25
2022-08-24T17:15:11.872Z,3.72
2022-08-24T17:18:07.638Z,3.17
2022-08-24T17:20:40.516Z,3.35
2022-08-24T17:23:13.480Z,3.70
2022-08-24T17:25:46.677Z,4.05
2022-08-24T17:28:19.533Z,4.03
2022-08-24T17:30:52.057Z,4.35
2022-08-24T17:33:24.852Z,3.88
2022-08-24T17:35:57.431Z,4.15
2022-08-24T17:38:31.565Z,3.63
2022-08-24T17:41:04.435Z,3.90
2022-08-24T17:43:38.589Z,4.00
2022-08-24T17:46:14.330Z,4.90
2022-08-24T17:48:48.256Z,4.30
2022-08-24T17:51:21.012Z,7.57
2022-08-24T17:53:54.184Z,4.35
2022-08-24T17:56:31.228Z,4.53
2022-08-24T17:59:25.013Z,4.55
2022-08-24T18:02:04.315Z,4.30
2022-08-24T18:04:38.259Z,4.35
2022-08-24T18:07:16.652Z,4.43
2022-08-24T18:10:00.410Z,4.47
2022-08-24T18:12:32.987Z,4.03
2022-08-24T18:15:06.879Z,4.35
2022-08-24T18:17:45.255Z,4.38
2022-08-24T18:20:24.919Z,4.28
2022-08-24T18:22:58.042Z,4.80
2022-08-24T18:25:34.973Z,4.45
2022-08-24T18:28:07.642Z,4.53
2022-08-24T18:30:41.420Z,5.90
2022-08-24T18:33:14.048Z,5.05
2022-08-24T18:35:47.690Z,4.55
2022-08-24T18:38:20.284Z,4.82
2022-08-24T18:40:53.541Z,4.25
2022-08-24T18:43:26.163Z,4.55
2022-08-24T18:45:59.001Z,6.28
2022-08-24T18:48:32.298Z,5.53
2022-08-24T18:51:06.746Z,5.03
2022-08-24T18:53:39.318Z,5.35
2022-08-24T18:56:12.795Z,5.20
2022-08-24T18:58:45.471Z,5.03
2022-08-24T19:01:18.523Z,5.00
2022-08-24T19:03:51.684Z,5.80
2022-08-24T19:06:25.002Z,4.95
2022-08-24T19:08:57.488Z,5.55
2022-08-24T19:11:30.366Z,5.70
2022-08-24T19:14:03.473Z,5.28
2022-08-24T19:16:36.900Z,5.25
2022-08-24T19:19:09.547Z,5.35
2022-08-24T19:21:42.293Z,5.40
2022-08-24T19:24:14.870Z,4.88
2022-08-24T19:26:47.624Z,5.32
2022-08-24T19:29:38.870Z,4.75
2022-08-24T19:32:21.832Z,5.43
2022-08-24T19:34:57.639Z,5.30
2022-08-24T19:37:31.484Z,5.10
2022-08-24T19:40:04.851Z,4.18
2022-08-24T19:42:37.760Z,4.70
2022-08-24T19:45:37.648Z,4.45
2022-08-24T19:48:12.424Z,5.07
2022-08-24T19:50:45.143Z,5.22
2022-08-24T19:53:18.158Z,5.20
2022-08-24T19:55:50.802Z,4.55
2022-08-24T19:58:32.361Z,4.55
2022-08-24T20:01:22.863Z,4.55
2022-08-24T20:03:56.127Z,4.65
2022-08-24T20:06:30.586Z,4.68
2022-08-24T20:09:04.268Z,4.80
2022-08-24T20:11:39.412Z,5.40
2022-08-24T20:14:12.209Z,4.05
2022-08-24T20:16:45.050Z,4.78
2022-08-24T20:19:18.281Z,5.18
2022-08-24T20:21:50.892Z,4.00
2022-08-24T20:24:24.611Z,5.35
2022-08-24T20:26:57.475Z,5.18
2022-08-24T20:29:30.294Z,4.80
2022-08-24T20:32:03.114Z,4.53
2022-08-24T20:34:35.872Z,4.47
2022-08-24T20:37:09.187Z,5.45
2022-08-24T20:39:41.950Z,6.47
2022-08-24T20:42:21.050Z,4.97
2022-08-24T20:44:56.286Z,4.57
2022-08-24T20:47:28.912Z,4.70
2022-08-24T20:50:02.187Z,5.13
2022-08-24T20:52:34.709Z,4.60
2022-08-24T20:55:08.183Z,5.25
2022-08-24T20:57:47.235Z,4.53
2022-08-24T21:00:22.219Z,3.80
2022-08-24T21:02:55.023Z,5.25
2022-08-24T21:05:27.983Z,4.85
2022-08-24T21:08:00.567Z,5.47
2022-08-24T21:10:33.378Z,5.70
2022-08-24T21:13:06.575Z,4.97
2022-08-24T21:15:41.545Z,5.43
2022-08-24T21:18:14.290Z,5.97
2022-08-24T21:21:03.458Z,5.65
2022-08-24T21:23:36.794Z,4.97
2022-08-24T21:26:12.230Z,5.55
2022-08-24T21:28:44.945Z,4.90
2022-08-24T21:31:17.958Z,5.07
2022-08-24T21:34:09.281Z,5.72
2022-08-24T21:36:42.124Z,4.13
2022-08-24T21:39:14.701Z,4.22
2022-08-24T21:41:47.753Z,4.80
2022-08-24T21:44:20.276Z,4.40
2022-08-24T21:46:53.588Z,4.95
2022-08-24T21:49:26.275Z,4.38
2022-08-24T21:51:59.016Z,4.03
2022-08-24T21:54:31.520Z,4.63
2022-08-24T21:57:05.962Z,4.18
2022-08-24T21:59:39.060Z,4.85
2022-08-24T22:02:13.504Z,4.57
2022-08-24T22:04:56.702Z,5.00
2022-08-24T22:07:29.645Z,4.63
2022-08-24T22:10:02.299Z,5.18
2022-08-24T22:12:36.932Z,5.18
2022-08-24T22:15:11.795Z,4.55
2022-08-24T22:17:45.148Z,4.55
2022-08-24T22:20:22.958Z,4.60
2022-08-24T22:22:58.544Z,5.13
2022-08-24T22:25:31.201Z,4.55
2022-08-24T22:28:04.173Z,4.78
2022-08-24T22:30:36.683Z,4.68
2022-08-24T22:33:09.737Z,3.92
2022-08-24T22:35:45.433Z,4.00
2022-08-24T22:38:19.372Z,5.30
2022-08-24T22:40:55.171Z,4.70
2022-08-24T22:43:47.911Z,4.07
2022-08-24T22:46:26.151Z,3.80
2022-08-24T22:48:59.930Z,2.80
2022-08-24T22:51:33.393Z,3.05
2022-08-24T22:54:06.795Z,3.03
2022-08-24T22:56:43.131Z,2.83
2022-08-24T22:59:23.733Z,3.08
2022-08-24T23:01:57.959Z,5.22
2022-08-24T23:04:34.661Z,3.88
2022-08-24T23:07:08.299Z,3.95
2022-08-24T23:09:44.758Z,4.28
2022-08-24T23:12:21.693Z,4.43
2022-08-24T23:14:55.377Z,4.78
2022-08-24T23:17:28.051Z,4.68
2022-08-24T23:20:01.326Z,4.95
2022-08-24T23:22:37.772Z,5.38
2022-08-24T23:25:13.129Z,4.50
2022-08-24T23:27:49.858Z,5.22
2022-08-24T23:30:23.164Z,4.90
2022-08-24T23:32:55.660Z,5.43
2022-08-24T23:35:28.875Z,5.72
2022-08-24T23:38:01.387Z,5.00
2022-08-24T23:40:34.133Z,5.20
2022-08-24T23:43:06.692Z,5.30
2022-08-24T23:45:42.412Z,6.03
2022-08-24T23:48:14.940Z,5.30
2022-08-24T23:50:47.777Z,5.38
2022-08-24T23:53:21.048Z,5.35
2022-08-24T23:55:53.960Z,5.28
2022-08-24T23:58:26.490Z,5.15
